Time;durP1;ratioP1;P1;durP2;ratioP2;P2;SDS_P1;SDS_P2;PMS_P1;PMS_P2;Temp;Humidity;BMP_temperature;BMP_pressure;BME280_temperature;BME280_humidity;BME280_pressure;Samples;Min_cycle;Max_cycle;Signal;HPM_P1;HPM_P2
2022/04/27 00:00:35;;;;;;;;;;;;;;;7.65;75.04;92841.22;2052365;70;20051;-70
2022/04/27 00:03:01;;;;;;;;;;;;;;;8.10;73.01;92842.41;2052257;70;20074;-69
2022/04/27 00:05:28;;;;;;;;;;;;;;;7.89;74.60;92845.81;2052241;70;20505;-69
2022/04/27 00:07:53;;;;;;;;;;;;;;;7.81;74.63;92847.28;2052250;70;20486;-69
2022/04/27 00:10:19;;;;;;;;;;;;;;;7.89;74.46;92845.09;2052287;70;20178;-69
2022/04/27 00:12:45;;;;;;;;;;;;;;;7.57;75.35;92849.78;2052233;70;20521;-70
2022/04/27 00:15:11;;;;;;;;;;;;;;;7.22;77.50;92859.75;2052375;69;20090;-71
2022/04/27 00:17:36;;;;;;;;;;;;;;;7.58;75.82;92850.53;2052229;70;20054;-70
2022/04/27 00:20:02;;;;;;;;;;;;;;;7.96;73.21;92858.19;2052308;70;20049;-69
2022/04/27 00:22:28;;;;;;;;;;;;;;;7.47;75.29;92851.84;2052382;70;20558;-69
2022/04/27 00:24:53;;;;;;;;;;;;;;;7.53;74.88;92851.56;2052209;70;20090;-70
2022/04/27 00:27:19;;;;;;;;;;;;;;;8.21;72.31;92848.75;2065169;69;20055;-69
2022/04/27 00:29:44;;;;;;;;;;;;;;;7.69;74.57;92846.38;2052354;70;20042;-70
2022/04/27 00:32:10;;;;;;;;;;;;;;;8.10;72.50;92847.28;2052217;70;20063;-70
2022/04/27 00:34:35;;;;;;;;;;;;;;;7.81;74.30;92850.81;2065176;69;20139;-70
2022/04/27 00:37:02;;;;;;;;;;;;;;;8.18;72.15;92849.94;2052314;70;20086;-69
2022/04/27 00:39:28;;;;;;;;;;;;;;;8.21;71.51;92848.75;2052278;70;20046;-69
2022/04/27 00:42:00;;;;;;;;;;;;;;;8.53;69.62;92847.53;2052209;70;20062;-69
2022/04/27 00:44:29;;;;;;;;;;;;;;;8.53;69.69;92850.34;2062660;69;20054;-70
2022/04/27 00:46:54;;;;;;;;;;;;;;;8.47;70.44;92855.50;2065211;69;20047;-69
2022/04/27 00:49:20;;;;;;;;;;;;;;;8.53;70.13;92847.53;2052275;69;20151;-69
2022/04/27 00:51:46;;;;;;;;;;;;;;;8.52;70.57;92852.41;2065333;69;20050;-70
2022/04/27 00:54:12;;;;;;;;;;;;;;;8.36;70.19;92852.00;2065172;69;20062;-71
2022/04/27 00:56:38;;;;;;;;;;;;;;;7.97;72.84;92842.88;2052530;69;20054;-70
2022/04/27 00:59:03;;;;;;;;;;;;;;;8.29;71.36;92847.28;2065334;69;20419;-70
2022/04/27 01:01:29;;;;;;;;;;;;;;;8.10;72.97;92844.47;2065083;69;20541;-70
2022/04/27 01:03:56;;;;;;;;;;;;;;;8.22;71.29;92847.41;2062444;69;20050;-70
2022/04/27 01:06:22;;;;;;;;;;;;;;;8.27;71.92;92844.31;2052333;69;20090;-69
2022/04/27 01:08:47;;;;;;;;;;;;;;;8.34;71.05;92849.03;2062329;69;20479;-70
2022/04/27 01:11:14;;;;;;;;;;;;;;;8.46;70.69;92851.25;2065138;69;20050;-71
2022/04/27 01:13:47;;;;;;;;;;;;;;;8.42;70.11;92850.94;2065114;69;20050;-70
2022/04/27 01:16:12;;;;;;;;;;;;;;;8.38;70.84;92846.53;2065216;69;20054;-71
2022/04/27 01:18:38;;;;;;;;;;;;;;;8.50;70.37;92843.84;2065266;69;20051;-70
2022/04/27 01:21:04;;;;;;;;;;;;;;;8.44;70.47;92848.31;2065297;69;20053;-71
2022/04/27 01:23:34;;;;;;;;;;;;;;;8.21;72.18;92838.28;2065033;69;20055;-69
2022/04/27 01:26:05;;;;;;;;;;;;;;;8.02;73.78;92847.44;2065189;69;20146;-70
2022/04/27 01:28:31;;;;;;;;;;;;;;;8.43;70.11;92846.81;2065068;69;20174;-69
2022/04/27 01:30:57;;;;;;;;;;;;;;;8.53;70.52;92848.28;2065142;69;20149;-70
2022/04/27 01:33:23;;;;;;;;;;;;;;;8.54;70.89;92852.56;2065260;69;20066;-69
2022/04/27 01:35:49;;;;;;;;;;;;;;;8.51;70.15;92850.94;2053688;70;20438;-70
2022/04/27 01:38:16;;;;;;;;;;;;;;;8.36;71.14;92848.44;2055565;70;20046;-71
2022/04/27 01:40:42;;;;;;;;;;;;;;;8.40;70.02;92849.47;2055831;69;20066;-71
2022/04/27 01:43:07;;;;;;;;;;;;;;;8.24;71.41;92861.56;2055754;69;20488;-71
2022/04/27 01:45:32;;;;;;;;;;;;;;;8.32;70.43;92853.75;2055783;70;20458;-71
2022/04/27 01:47:58;;;;;;;;;;;;;;;8.18;71.31;92856.28;2055742;70;20071;-71
2022/04/27 01:50:24;;;;;;;;;;;;;;;8.03;73.09;92856.59;2055719;69;20487;-72
2022/04/27 01:55:34;;;;;;;;;;;;;;;8.17;72.60;92860.41;2068715;69;20150;-71
2022/04/27 01:58:00;;;;;;;;;;;;;;;8.32;72.07;92860.09;2071528;69;20134;-71
2022/04/27 02:00:26;;;;;;;;;;;;;;;8.50;70.65;92863.47;2065984;69;20058;-71
2022/04/27 02:02:52;;;;;;;;;;;;;;;8.39;72.21;92864.09;2055692;69;20050;-71
2022/04/27 02:05:17;;;;;;;;;;;;;;;8.43;70.36;92861.59;2068669;69;20046;-71
2022/04/27 02:14:40;;;;;;;;;;;;;;;8.50;69.61;92874.72;2053374;69;20062;-71
2022/04/27 02:17:06;;;;;;;;;;;;;;;8.43;71.02;92861.59;2068639;69;20050;-70
2022/04/27 02:19:32;;;;;;;;;;;;;;;8.16;71.76;92853.34;2068618;69;20103;-71
2022/04/27 02:21:58;;;;;;;;;;;;;;;8.48;69.70;92868.97;2068568;69;20058;-71
2022/04/27 02:24:25;;;;;;;;;;;;;;;8.51;69.82;92862.16;2055626;70;20054;-71
2022/04/27 02:26:52;;;;;;;;;;;;;;;8.22;70.93;92875.47;2068625;69;20073;-71
2022/04/27 02:29:18;;;;;;;;;;;;;;;7.88;73.58;92871.66;2068668;69;20050;-71
2022/04/27 02:31:44;;;;;;;;;;;;;;;8.01;73.20;92873.25;2068504;69;20115;-71
2022/04/27 02:34:10;;;;;;;;;;;;;;;7.85;73.62;92875.63;2055634;70;20066;-70
2022/04/27 02:36:37;;;;;;;;;;;;;;;8.06;73.76;92881.38;2068554;69;20054;-71
2022/04/27 02:39:02;;;;;;;;;;;;;;;7.89;74.30;92881.53;2055657;70;20061;-71
2022/04/27 02:41:30;;;;;;;;;;;;;;;8.02;73.59;92881.09;2068583;69;20485;-71
2022/04/27 02:43:56;;;;;;;;;;;;;;;7.90;74.69;92891.41;2068582;69;20484;-70
2022/04/27 02:46:21;;;;;;;;;;;;;;;8.09;73.02;92887.88;2068474;69;20046;-70
2022/04/27 02:51:51;;;;;;;;;;;;;;;7.59;75.73;92883.53;2068457;69;20057;-71
2022/04/27 02:54:22;;;;;;;;;;;;;;;7.81;74.89;92892.13;2068591;69;20082;-71
2022/04/27 02:56:48;;;;;;;;;;;;;;;7.90;73.79;92894.19;2068547;69;20057;-71
2022/04/27 02:59:14;;;;;;;;;;;;;;;8.08;72.93;92889.19;2068579;69;20161;-71
2022/04/27 03:01:42;;;;;;;;;;;;;;;8.03;73.37;92890.97;2068460;69;20117;-71
2022/04/27 03:04:08;;;;;;;;;;;;;;;7.97;73.89;92895.38;2055567;70;20481;-70
2022/04/27 03:06:33;;;;;;;;;;;;;;;8.17;73.07;92887.72;2065886;69;20077;-71
2022/04/27 03:08:59;;;;;;;;;;;;;;;7.98;74.78;92892.00;2055624;69;20486;-70
2022/04/27 03:11:25;;;;;;;;;;;;;;;7.88;74.66;92889.19;2068563;69;20086;-70
2022/04/27 03:14:09;;;;;;;;;;;;;;;8.33;72.27;92891.69;2055685;69;20123;-71
2022/04/27 03:16:34;;;;;;;;;;;;;;;8.36;71.12;92888.47;2068456;69;20066;-70
2022/04/27 03:19:01;;;;;;;;;;;;;;;8.36;71.93;92894.06;2068567;69;20056;-71
2022/04/27 03:21:29;;;;;;;;;;;;;;;8.34;72.49;92893.91;2055658;69;20097;-71
2022/04/27 03:23:56;;;;;;;;;;;;;;;8.39;71.37;92886.56;2055532;69;20074;-71
2022/04/27 03:26:21;;;;;;;;;;;;;;;8.32;71.76;92895.81;2068666;69;20580;-71
2022/04/27 03:28:47;;;;;;;;;;;;;;;8.32;71.42;92896.56;2068547;69;20050;-71
2022/04/27 03:31:12;;;;;;;;;;;;;;;8.38;70.94;92901.88;2055606;70;20155;-71
2022/04/27 03:33:38;;;;;;;;;;;;;;;8.16;72.64;92906.63;2068484;69;20487;-71
2022/04/27 03:36:08;;;;;;;;;;;;;;;8.22;72.05;92906.31;2055598;70;20054;-71
2022/04/27 03:38:34;;;;;;;;;;;;;;;8.05;73.39;92912.81;2065637;69;20518;-70
2022/04/27 03:40:59;;;;;;;;;;;;;;;7.92;73.61;92908.34;2065308;69;20050;-71
2022/04/27 03:43:26;;;;;;;;;;;;;;;7.96;73.88;92905.84;2060647;69;20141;-71
2022/04/27 03:45:51;;;;;;;;;;;;;;;7.85;73.85;92909.25;2056965;69;20162;-71
2022/04/27 03:48:17;;;;;;;;;;;;;;;7.86;73.65;92911.47;2060334;69;20049;-71
2022/04/27 03:50:42;;;;;;;;;;;;;;;7.90;72.67;92911.75;2060662;69;20158;-71
2022/04/27 03:53:08;;;;;;;;;;;;;;;7.84;73.64;92910.59;2062968;69;20050;-70
2022/04/27 03:55:34;;;;;;;;;;;;;;;7.97;72.77;92907.34;2062901;69;20145;-71
2022/04/27 03:58:00;;;;;;;;;;;;;;;8.01;71.75;92912.50;2065201;69;20112;-71
2022/04/27 04:00:26;;;;;;;;;;;;;;;8.24;71.02;92915.59;2056941;69;20524;-71
2022/04/27 04:03:04;;;;;;;;;;;;;;;8.10;73.01;92920.91;2064894;69;20452;-71
2022/04/27 04:05:30;;;;;;;;;;;;;;;8.10;72.97;92911.75;2061015;69;20057;-70
2022/04/27 04:07:56;;;;;;;;;;;;;;;8.05;71.92;92921.22;2063336;69;20141;-71
2022/04/27 04:10:22;;;;;;;;;;;;;;;8.20;70.77;92922.97;2056519;69;20510;-70
2022/04/27 04:12:49;;;;;;;;;;;;;;;8.11;72.76;92930.09;2058290;69;20123;-72
2022/04/27 04:15:50;;;;;;;;;;;;;;;8.09;72.43;92927.13;2062482;69;20152;-72
2022/04/27 04:18:18;;;;;;;;;;;;;;;7.91;73.73;92932.13;2058231;69;20054;-71
2022/04/27 04:21:06;;;;;;;;;;;;;;;7.49;76.62;92935.28;2062624;69;20516;-70
2022/04/27 04:23:46;;;;;;;;;;;;;;;7.90;74.41;92939.06;2057027;69;20145;-71
2022/04/27 04:28:58;;;;;;;;;;;;;;;8.05;73.28;92952.78;2063640;69;20543;-70
2022/04/27 04:31:24;;;;;;;;;;;;;;;8.13;71.64;92952.66;2063181;69;20056;-71
2022/04/27 04:34:18;;;;;;;;;;;;;;;7.88;72.77;92956.47;2058452;69;20064;-71
2022/04/27 04:36:44;;;;;;;;;;;;;;;7.98;72.56;92958.56;2063338;69;20424;-71
2022/04/27 04:39:10;;;;;;;;;;;;;;;7.75;74.38;92965.28;2063303;69;20172;-70
2022/04/27 04:41:37;;;;;;;;;;;;;;;7.97;73.43;92969.03;2060576;69;20046;-70
2022/04/27 04:44:03;;;;;;;;;;;;;;;7.98;73.82;92964.16;2062798;69;20047;-71
2022/04/27 04:46:41;;;;;;;;;;;;;;;8.15;73.16;92972.44;2060582;69;20057;-71
2022/04/27 04:49:28;;;;;;;;;;;;;;;8.24;73.15;92970.97;2056823;69;20513;-70
2022/04/27 04:52:13;;;;;;;;;;;;;;;8.30;72.96;92980.56;2065731;69;20057;-70
2022/04/27 04:54:46;;;;;;;;;;;;;;;8.27;73.14;92976.13;2072242;69;20054;-71
2022/04/27 04:57:12;;;;;;;;;;;;;;;8.37;71.43;92978.97;2059148;69;20057;-70
2022/04/27 04:59:56;;;;;;;;;;;;;;;8.29;72.53;92984.72;2059088;69;20122;-70
2022/04/27 05:02:44;;;;;;;;;;;;;;;8.28;73.20;92988.81;2063150;69;20057;-71
2022/04/27 05:05:34;;;;;;;;;;;;;;;8.42;71.45;92983.53;2060744;69;20057;-71
2022/04/27 05:08:18;;;;;;;;;;;;;;;8.41;69.42;92984.88;2059171;69;20220;-70
2022/04/27 05:11:13;;;;;;;;;;;;;;;7.91;73.78;92990.97;2066758;69;20499;-71
2022/04/27 05:14:01;;;;;;;;;;;;;;;8.11;73.25;92988.97;2059088;69;20054;-70
2022/04/27 05:16:46;;;;;;;;;;;;;;;8.33;73.21;92990.59;2059446;69;20137;-70
2022/04/27 05:19:37;;;;;;;;;;;;;;;8.41;72.83;92990.47;2072159;69;20146;-70
2022/04/27 05:22:14;;;;;;;;;;;;;;;8.48;71.31;92997.28;2059194;69;20054;-70
2022/04/27 05:25:03;;;;;;;;;;;;;;;8.43;73.55;92999.06;2072126;69;20046;-70
2022/04/27 05:27:43;;;;;;;;;;;;;;;8.34;73.93;93002.56;2072133;69;20050;-70
2022/04/27 05:33:23;;;;;;;;;;;;;;;8.08;74.99;93007.69;2059111;69;20053;-69
2022/04/27 05:35:59;;;;;;;;;;;;;;;8.20;73.85;93013.50;2072131;69;20056;-70
2022/04/27 05:38:38;;;;;;;;;;;;;;;8.30;73.47;93017.03;2072133;69;20149;-70
2022/04/27 05:41:30;;;;;;;;;;;;;;;8.42;72.82;93024.88;2062368;69;20252;-72
2022/04/27 05:44:03;;;;;;;;;;;;;;;8.57;72.76;93028.16;2072057;69;20485;-71
2022/04/27 05:46:54;;;;;;;;;;;;;;;8.61;70.66;93025.66;2072023;69;20137;-71
2022/04/27 05:49:30;;;;;;;;;;;;;;;8.61;72.71;93025.66;2072086;69;20485;-72
2022/04/27 05:52:24;;;;;;;;;;;;;;;8.87;71.56;93032.41;2060773;69;20129;-71
2022/04/27 05:55:09;;;;;;;;;;;;;;;8.86;72.58;93030.22;2065954;69;20054;-72
2022/04/27 05:57:52;;;;;;;;;;;;;;;8.57;72.20;93030.97;2049151;70;20051;-72
2022/04/27 06:00:46;;;;;;;;;;;;;;;8.73;70.79;93025.78;2064011;69;20047;-72
2022/04/27 06:03:27;;;;;;;;;;;;;;;8.85;71.37;93031.56;2065373;69;20078;-72
2022/04/27 06:05:56;;;;;;;;;;;;;;;8.85;69.62;93035.09;2066873;69;20077;-72
2022/04/27 06:08:22;;;;;;;;;;;;;;;9.04;70.17;93030.78;2065509;69;20485;-72
2022/04/27 06:10:48;;;;;;;;;;;;;;;8.93;70.36;93039.81;2066575;69;20050;-72
2022/04/27 06:13:13;;;;;;;;;;;;;;;8.67;71.65;93035.84;2066504;69;20082;-72
2022/04/27 06:16:07;;;;;;;;;;;;;;;8.68;71.18;93038.03;2073247;69;20125;-72
2022/04/27 06:18:55;;;;;;;;;;;;;;;8.94;69.51;93044.84;2074780;69;20051;-72
2022/04/27 06:21:22;;;;;;;;;;;;;;;9.21;68.99;93049.53;2074730;69;20155;-72
2022/04/27 06:23:47;;;;;;;;;;;;;;;9.45;69.30;93044.91;2074711;69;20139;-72
2022/04/27 06:26:14;;;;;;;;;;;;;;;9.60;69.50;93050.19;2074616;69;20059;-72
2022/04/27 06:28:42;;;;;;;;;;;;;;;9.75;68.19;93051.91;2074743;69;20119;-72
2022/04/27 06:31:08;;;;;;;;;;;;;;;9.80;66.27;93051.56;2074586;69;20125;-72
2022/04/27 06:33:37;;;;;;;;;;;;;;;9.90;67.51;93049.47;2075253;69;20055;-72
2022/04/27 06:36:03;;;;;;;;;;;;;;;9.98;67.14;93049.28;2074722;69;20112;-72
2022/04/27 06:38:29;;;;;;;;;;;;;;;10.02;67.22;93049.56;2074694;69;20048;-72
2022/04/27 06:40:58;;;;;;;;;;;;;;;9.54;68.27;93052.56;2074702;69;20064;-72
2022/04/27 06:43:28;;;;;;;;;;;;;;;9.63;67.55;93052.53;2074674;69;20088;-72
2022/04/27 06:46:12;;;;;;;;;;;;;;;9.37;67.32;93050.69;2075164;69;20047;-72
2022/04/27 06:48:56;;;;;;;;;;;;;;;9.49;67.37;93048.00;2075243;69;20062;-72
2022/04/27 06:51:40;;;;;;;;;;;;;;;9.83;65.50;93046.84;2075231;69;20063;-72
2022/04/27 06:54:38;;;;;;;;;;;;;;;9.88;65.07;93062.66;2071054;69;20083;-72
2022/04/27 06:57:42;;;;;;;;;;;;;;;10.39;64.96;93055.59;2067498;69;20167;-72
2022/04/27 07:00:12;;;;;;;;;;;;;;;10.20;64.25;93066.94;2067389;69;20072;-72
2022/04/27 07:02:38;;;;;;;;;;;;;;;10.41;64.62;93071.91;2071207;69;20048;-71
2022/04/27 07:05:04;;;;;;;;;;;;;;;10.60;61.96;93068.22;2074576;69;20054;-71
2022/04/27 07:07:30;;;;;;;;;;;;;;;10.35;63.07;93068.66;2074599;69;20064;-72
2022/04/27 07:09:57;;;;;;;;;;;;;;;10.63;64.10;93069.84;2075149;69;20088;-72
2022/04/27 07:12:23;;;;;;;;;;;;;;;10.87;62.93;93073.53;2075091;69;20141;-71
2022/04/27 07:14:48;;;;;;;;;;;;;;;11.26;61.81;93070.38;2069188;69;20069;-71
2022/04/27 07:17:14;;;;;;;;;;;;;;;11.26;62.27;93078.81;2058791;69;20057;-71
2022/04/27 07:19:39;;;;;;;;;;;;;;;11.29;61.87;93074.78;2058773;69;20054;-71
2022/04/27 07:22:05;;;;;;;;;;;;;;;11.43;61.50;93078.53;2058795;69;20572;-71
2022/04/27 07:24:33;;;;;;;;;;;;;;;11.48;61.15;93073.88;2058854;69;20049;-72
2022/04/27 07:26:58;;;;;;;;;;;;;;;11.30;61.01;93076.25;2058820;69;20065;-71
2022/04/27 07:29:24;;;;;;;;;;;;;;;11.18;61.77;93079.06;2058808;69;20042;-71
2022/04/27 07:31:49;;;;;;;;;;;;;;;11.16;59.52;93076.81;2058813;69;20139;-72
2022/04/27 07:34:15;;;;;;;;;;;;;;;11.11;61.39;93072.28;2058939;69;20057;-71
2022/04/27 07:36:40;;;;;;;;;;;;;;;11.00;60.53;93087.06;2058790;69;20057;-71
2022/04/27 07:39:06;;;;;;;;;;;;;;;11.05;59.65;93082.44;2059285;69;20057;-72
2022/04/27 07:41:32;;;;;;;;;;;;;;;11.56;59.34;93083.59;2059309;69;20165;-72
2022/04/27 07:44:01;;;;;;;;;;;;;;;11.58;59.45;93080.88;2059310;69;20471;-72
2022/04/27 07:46:26;;;;;;;;;;;;;;;11.50;59.61;93086.03;2059172;69;20081;-72
2022/04/27 07:48:51;;;;;;;;;;;;;;;11.68;58.72;93092.06;2059284;69;20277;-71
2022/04/27 07:51:17;;;;;;;;;;;;;;;11.57;59.29;93098.41;2059295;69;20054;-70
2022/04/27 07:53:43;;;;;;;;;;;;;;;11.73;59.86;93088.16;2059279;69;20076;-71
2022/04/27 07:56:09;;;;;;;;;;;;;;;12.00;58.98;93087.72;2059311;69;20083;-71
2022/04/27 07:58:34;;;;;;;;;;;;;;;12.13;58.77;93095.59;2059267;69;20048;-70
2022/04/27 08:01:00;;;;;;;;;;;;;;;12.14;58.89;93096.31;2059202;69;20053;-71
2022/04/27 08:03:26;;;;;;;;;;;;;;;12.09;58.23;93095.34;2059251;69;20046;-71
2022/04/27 08:05:51;;;;;;;;;;;;;;;11.90;58.92;93093.47;2059218;69;20085;-72
2022/04/27 08:08:17;;;;;;;;;;;;;;;11.57;59.11;93096.34;2059395;69;20100;-71
2022/04/27 08:10:42;;;;;;;;;;;;;;;11.13;58.21;93105.47;2059281;69;20136;-75
2022/04/27 08:13:08;;;;;;;;;;;;;;;11.30;58.19;93104.44;2072295;69;20560;-70
2022/04/27 08:15:33;;;;;;;;;;;;;;;11.56;57.05;93108.22;2059106;69;20534;-71
2022/04/27 08:18:00;;;;;;;;;;;;;;;11.28;56.86;93105.06;2059303;69;20053;-72
2022/04/27 08:23:18;;;;;;;;;;;;;;;12.17;57.19;93109.22;2059156;69;20049;-71
2022/04/27 08:25:43;;;;;;;;;;;;;;;12.61;56.96;93104.81;2059331;69;20042;-71
2022/04/27 08:28:09;;;;;;;;;;;;;;;13.22;57.07;93114.06;2059282;69;20485;-72
2022/04/27 08:30:45;;;;;;;;;;;;;;;13.02;55.91;93107.22;2059060;69;20542;-72
2022/04/27 08:33:11;;;;;;;;;;;;;;;12.27;56.14;93109.84;2059214;69;20074;-72
2022/04/27 08:35:36;;;;;;;;;;;;;;;12.88;55.33;93110.66;2072209;69;20057;-72
2022/04/27 08:38:02;;;;;;;;;;;;;;;13.11;54.90;93109.16;2072129;69;20074;-73
2022/04/27 08:40:28;;;;;;;;;;;;;;;13.85;53.27;93109.13;2059165;69;20042;-74
2022/04/27 08:42:54;;;;;;;;;;;;;;;14.09;52.71;93114.63;2059045;69;20080;-73
2022/04/27 08:45:20;;;;;;;;;;;;;;;14.58;50.77;93111.59;2058994;69;20561;-72
2022/04/27 08:47:46;;;;;;;;;;;;;;;15.35;52.36;93111.94;2058995;69;20512;-73
2022/04/27 08:50:16;;;;;;;;;;;;;;;15.95;49.94;93110.66;2072200;69;20046;-73
2022/04/27 08:52:42;;;;;;;;;;;;;;;15.65;47.95;93112.75;2072120;69;20093;-74
2022/04/27 08:55:08;;;;;;;;;;;;;;;15.76;45.37;93109.03;2059145;69;20137;-73
2022/04/27 08:57:33;;;;;;;;;;;;;;;16.23;46.45;93114.81;2059156;69;20152;-74
2022/04/27 08:59:59;;;;;;;;;;;;;;;15.51;47.30;93110.66;2072081;69;20132;-73
2022/04/27 09:02:26;;;;;;;;;;;;;;;15.73;46.79;93113.88;2059126;69;20061;-70
2022/04/27 09:05:10;;;;;;;;;;;;;;;15.97;44.78;93117.13;2059190;69;20089;-71
2022/04/27 09:07:39;;;;;;;;;;;;;;;17.02;44.85;93111.97;2072183;69;20057;-71
2022/04/27 09:10:06;;;;;;;;;;;;;;;17.20;43.24;93111.28;2059104;69;20130;-71
2022/04/27 09:12:34;;;;;;;;;;;;;;;17.54;43.07;93104.19;2059090;69;20053;-70
2022/04/27 09:15:04;;;;;;;;;;;;;;;18.57;41.18;93108.25;2074762;69;20479;-69
2022/04/27 09:21:00;;;;;;;;;;;;;;;18.90;40.78;93107.34;2075647;69;20498;-70
2022/04/27 09:23:01;;;;;;;;;;;;;;;18.40;38.70;93098.34;2074009;69;20055;-71
2022/04/27 09:25:36;;;;;;;;;;;;;;;17.26;40.48;93100.91;2075427;69;20048;-71
2022/04/27 09:28:02;;;;;;;;;;;;;;;17.67;41.29;93101.84;2074912;69;20501;-72
2022/04/27 09:30:29;;;;;;;;;;;;;;;18.78;40.41;93099.84;2075317;69;20045;-73
2022/04/27 09:32:54;;;;;;;;;;;;;;;19.25;38.11;93098.63;2074882;69;20048;-71
2022/04/27 09:35:30;;;;;;;;;;;;;;;19.87;38.23;93100.72;2075383;69;20117;-71
2022/04/27 09:37:55;;;;;;;;;;;;;;;20.14;37.96;93100.16;2075397;69;20052;-71
2022/04/27 09:40:21;;;;;;;;;;;;;;;18.09;36.83;93104.97;2075652;69;20068;-71
2022/04/27 09:42:46;;;;;;;;;;;;;;;19.10;35.95;93093.06;2075520;69;20047;-71
2022/04/27 09:45:16;;;;;;;;;;;;;;;19.81;37.38;93095.53;2075232;69;20229;-71
2022/04/27 09:47:46;;;;;;;;;;;;;;;19.59;37.00;93084.06;2075343;69;20572;-75
2022/04/27 09:50:11;;;;;;;;;;;;;;;20.67;35.91;93087.50;2075331;69;20056;-72
2022/04/27 09:52:37;;;;;;;;;;;;;;;19.96;33.71;93088.88;2075334;69;20492;-71
2022/04/27 09:55:02;;;;;;;;;;;;;;;18.61;36.81;93086.31;2074759;69;20171;-70
2022/04/27 09:57:30;;;;;;;;;;;;;;;20.04;34.70;93082.69;2075360;69;20063;-71
2022/04/27 09:59:55;;;;;;;;;;;;;;;21.13;34.15;93087.38;2072725;69;20118;-69
2022/04/27 10:02:22;;;;;;;;;;;;;;;20.36;33.48;93080.13;2068736;69;20485;-69
2022/04/27 10:04:50;;;;;;;;;;;;;;;20.38;31.76;93079.44;2068605;69;20128;-71
2022/04/27 10:07:20;;;;;;;;;;;;;;;21.01;31.32;93081.31;2068165;69;20480;-70
2022/04/27 10:09:46;;;;;;;;;;;;;;;20.44;29.69;93076.78;2068690;69;20060;-71
2022/04/27 10:12:11;;;;;;;;;;;;;;;20.43;31.60;93066.72;2068099;69;20049;-71
2022/04/27 10:14:37;;;;;;;;;;;;;;;21.68;29.00;93076.69;2064140;69;20497;-71
2022/04/27 10:17:03;;;;;;;;;;;;;;;21.83;30.02;93076.34;2052473;70;20145;-74
2022/04/27 10:19:29;;;;;;;;;;;;;;;21.37;28.69;93064.44;2052327;70;20064;-73
2022/04/27 10:21:57;;;;;;;;;;;;;;;22.40;28.06;93068.38;2052275;69;20061;-71
2022/04/27 10:24:33;;;;;;;;;;;;;;;22.07;28.07;93066.88;2052469;70;20086;-72
2022/04/27 10:27:18;;;;;;;;;;;;;;;22.22;27.25;93073.72;2052413;70;20053;-70
2022/04/27 10:29:51;;;;;;;;;;;;;;;22.95;26.83;93068.88;2052356;69;20050;-71
2022/04/27 10:32:36;;;;;;;;;;;;;;;22.36;27.43;93073.31;2049041;70;20142;-72
2022/04/27 10:35:11;;;;;;;;;;;;;;;23.86;26.36;93064.16;2057580;69;20065;-72
2022/04/27 10:37:47;;;;;;;;;;;;;;;23.73;27.08;93065.34;2058812;69;20046;-71
2022/04/27 10:40:29;;;;;;;;;;;;;;;23.18;26.96;93067.19;2058816;69;20108;-74
2022/04/27 10:43:00;;;;;;;;;;;;;;;22.93;25.96;93065.97;2058914;69;20050;-73
2022/04/27 10:45:27;;;;;;;;;;;;;;;23.77;26.85;93066.16;2071950;69;20103;-74
2022/04/27 10:47:53;;;;;;;;;;;;;;;24.91;26.13;93064.31;2058923;69;20131;-73
2022/04/27 10:50:28;;;;;;;;;;;;;;;26.36;25.21;93063.69;2058909;69;20520;-74
2022/04/27 10:52:57;;;;;;;;;;;;;;;27.03;23.41;93062.66;2058840;69;20057;-75
2022/04/27 10:55:35;;;;;;;;;;;;;;;24.75;24.02;93061.22;2058849;69;20180;-72
2022/04/27 10:58:17;;;;;;;;;;;;;;;25.69;21.69;93056.56;2058883;69;20042;-71
2022/04/27 11:00:57;;;;;;;;;;;;;;;28.34;19.20;93066.66;2058791;69;20093;-72
2022/04/27 11:03:24;;;;;;;;;;;;;;;30.81;16.20;93069.22;2058874;69;20158;-73
2022/04/27 11:05:50;;;;;;;;;;;;;;;29.45;17.24;93065.00;2058850;69;20437;-74
2022/04/27 11:08:34;;;;;;;;;;;;;;;31.64;16.25;93058.88;2058841;69;20084;-73
2022/04/27 11:11:09;;;;;;;;;;;;;;;29.91;15.70;93069.16;2058782;69;20050;-74
2022/04/27 11:13:35;;;;;;;;;;;;;;;33.27;13.41;93060.72;2058874;69;20115;-72
2022/04/27 11:16:10;;;;;;;;;;;;;;;30.19;15.58;93056.66;2058631;69;20042;-72
2022/04/27 11:18:49;;;;;;;;;;;;;;;33.56;13.01;93076.22;2059224;69;20432;-70
2022/04/27 11:21:14;;;;;;;;;;;;;;;35.22;13.04;93064.38;2060738;69;20042;-70
2022/04/27 11:23:40;;;;;;;;;;;;;;;36.31;12.43;93071.53;2058708;69;20433;-72
2022/04/27 11:26:06;;;;;;;;;;;;;;;38.14;12.37;93079.28;2058922;69;20394;-71
2022/04/27 11:28:32;;;;;;;;;;;;;;;38.90;10.54;93067.50;2058866;69;20060;-72
2022/04/27 11:30:57;;;;;;;;;;;;;;;36.00;12.40;93060.00;2057670;69;20527;-72
2022/04/27 11:33:23;;;;;;;;;;;;;;;36.47;11.55;93046.16;2058482;69;20053;-72
2022/04/27 11:35:49;;;;;;;;;;;;;;;31.67;12.90;93047.94;2058644;69;20054;-72
2022/04/27 11:38:19;;;;;;;;;;;;;;;36.94;11.79;93060.03;2071361;69;20050;-71
2022/04/27 11:40:44;;;;;;;;;;;;;;;35.75;12.23;93059.28;2056002;69;20443;-69
2022/04/27 11:43:10;;;;;;;;;;;;;;;33.48;12.35;93058.13;2055140;70;20135;-70
2022/04/27 11:45:35;;;;;;;;;;;;;;;31.04;15.58;93043.56;2055186;70;20497;-71
2022/04/27 11:48:02;;;;;;;;;;;;;;;32.96;14.09;93046.72;2055493;69;20090;-70
2022/04/27 11:50:29;;;;;;;;;;;;;;;32.29;14.37;93045.59;2055466;70;20050;-70
2022/04/27 11:53:13;;;;;;;;;;;;;;;32.69;14.30;93049.34;2055071;70;20047;-71
2022/04/27 11:55:39;;;;;;;;;;;;;;;33.13;13.82;93041.31;2055409;70;20058;-71
2022/04/27 11:58:05;;;;;;;;;;;;;;;32.89;14.35;93042.44;2055418;70;20166;-68
2022/04/27 12:00:31;;;;;;;;;;;;;;;35.38;13.07;93042.75;2068174;69;20054;-70
2022/04/27 12:03:03;;;;;;;;;;;;;;;34.24;12.64;93039.75;2055303;70;20047;-69
2022/04/27 12:05:38;;;;;;;;;;;;;;;37.14;13.33;93050.53;2054911;70;20065;-72
2022/04/27 12:08:07;;;;;;;;;;;;;;;35.31;11.47;93048.03;2054519;70;20136;-71
2022/04/27 12:10:42;;;;;;;;;;;;;;;35.50;12.43;93050.47;2063909;69;20101;-73
2022/04/27 12:13:11;;;;;;;;;;;;;;;39.75;11.33;93054.34;2055140;70;20055;-69
2022/04/27 12:15:39;;;;;;;;;;;;;;;39.27;9.38;93063.78;2055188;70;20055;-72
2022/04/27 12:18:05;;;;;;;;;;;;;;;40.81;10.75;93058.25;2055150;70;20058;-71
2022/04/27 12:20:39;;;;;;;;;;;;;;;41.72;9.62;93051.53;2054668;70;20432;-73
2022/04/27 12:23:08;;;;;;;;;;;;;;;38.89;10.29;93046.19;2068305;69;20043;-73
2022/04/27 12:25:41;;;;;;;;;;;;;;;36.19;10.54;93038.94;2070980;69;20060;-72
2022/04/27 12:28:11;;;;;;;;;;;;;;;36.52;10.21;93038.66;2059193;69;20050;-72
2022/04/27 12:30:55;;;;;;;;;;;;;;;37.23;10.25;93039.22;2058903;69;20438;-73
2022/04/27 12:33:22;;;;;;;;;;;;;;;36.28;11.46;93029.13;2058935;69;20061;-71
2022/04/27 12:38:34;;;;;;;;;;;;;;;36.83;11.47;93032.50;2059006;69;20481;-73
2022/04/27 12:41:00;;;;;;;;;;;;;;;35.27;12.07;93021.81;2058772;69;20056;-71
2022/04/27 12:43:27;;;;;;;;;;;;;;;31.92;12.35;93025.03;2058767;69;20074;-72
2022/04/27 12:46:03;;;;;;;;;;;;;;;38.84;10.99;93029.50;2058648;69;20153;-71
2022/04/27 12:48:30;;;;;;;;;;;;;;;36.57;10.41;93031.91;2058814;69;20435;-72
2022/04/27 12:50:55;;;;;;;;;;;;;;;35.74;11.01;93020.50;2058830;69;20145;-71
2022/04/27 12:53:21;;;;;;;;;;;;;;;36.77;9.84;93012.19;2071999;69;20553;-71
2022/04/27 12:55:59;;;;;;;;;;;;;;;36.49;10.41;93014.56;2059100;69;20057;-71
2022/04/27 12:58:24;;;;;;;;;;;;;;;36.16;11.29;93014.16;2058949;69;20064;-70
2022/04/27 13:00:51;;;;;;;;;;;;;;;33.35;13.06;93010.97;2059021;69;20053;-71
2022/04/27 13:03:16;;;;;;;;;;;;;;;37.44;11.74;93015.78;2059037;69;20053;-71
2022/04/27 13:05:42;;;;;;;;;;;;;;;39.14;11.14;93018.69;2059111;69;20046;-72
2022/04/27 13:08:08;;;;;;;;;;;;;;;40.13;10.78;93012.84;2059004;69;20116;-73
2022/04/27 13:13:18;;;;;;;;;;;;;;;42.54;8.17;93021.25;2059027;69;20473;-71
2022/04/27 13:15:45;;;;;;;;;;;;;;;41.65;7.70;93015.66;2071830;69;20141;-72
2022/04/27 13:18:11;;;;;;;;;;;;;;;37.95;10.88;93005.09;2059249;69;20177;-73
2022/04/27 13:20:37;;;;;;;;;;;;;;;40.78;7.94;93003.09;2059200;69;20110;-71
2022/04/27 13:23:03;;;;;;;;;;;;;;;40.52;8.16;92994.06;2072113;69;20507;-71
2022/04/27 13:25:28;;;;;;;;;;;;;;;40.76;8.61;92989.16;2059052;69;20089;-72
2022/04/27 13:27:54;;;;;;;;;;;;;;;39.79;9.47;92989.34;2059041;69;20499;-72
2022/04/27 13:30:20;;;;;;;;;;;;;;;38.96;8.88;92993.69;2058944;69;20043;-72
2022/04/27 13:32:48;;;;;;;;;;;;;;;40.23;8.54;92982.91;2059259;69;20054;-72
2022/04/27 13:35:13;;;;;;;;;;;;;;;38.63;9.70;92988.44;2059047;69;20053;-72